Fondale, Louisiana
Current Conditions -  °F | °C
As of 2:53 PM on Friday 31 Oct 2014 (Local Time) from KMLU Reporting Station
Scattered Clouds Scattered Clouds  
Wind Chill: 68°   Ceiling: Unl
Heat Index: 68°   Visibility: 10mi
Dew Point: 46°   Wind: 14mph
Humidity: 45%   Direction: 350°N
Pressure: 30.14"   Gusts: 25mph
Location:  32.5324°N, 92.1046°W
Report Text: KMLU 311953Z AUTO 35012G22KT 10SM SCT046 20/08 A3014 RMK AO2 SLP206 T02000078
Loading
Personal Weather Stations






























Interactive Weather Map
Tropical Storm Tracking
New forecast layout! Learn more

10-Day Weather Forecast

Advertisements
Track Severe Weather on mobile